createdAt,value
2018-11-05T10:40:17.399Z,13.60
2018-11-05T10:42:46.888Z,11.77
2018-11-05T10:45:16.491Z,13.17
2018-11-05T10:47:45.114Z,12.87
2018-11-05T10:50:15.158Z,10.97
2018-11-05T10:52:45.085Z,12.23
2018-11-05T10:55:13.648Z,14.00
2018-11-05T10:57:42.766Z,12.87
2018-11-05T11:00:21.803Z,11.73
2018-11-05T11:02:55.622Z,9.23
2018-11-05T11:05:24.828Z,14.17
2018-11-05T11:07:54.705Z,9.67
2018-11-05T11:10:23.808Z,8.67
2018-11-05T11:12:52.406Z,12.77
2018-11-05T11:15:21.230Z,11.50
2018-11-05T11:17:50.051Z,17.43
2018-11-05T11:20:18.579Z,8.23
2018-11-05T11:22:47.148Z,9.20
2018-11-05T11:25:15.868Z,13.43
2018-11-05T11:27:44.648Z,9.40
2018-11-05T11:30:14.445Z,12.00
2018-11-05T11:32:43.432Z,9.63
2018-11-05T11:35:12.447Z,9.40
2018-11-05T11:37:41.343Z,11.00
2018-11-05T11:40:12.804Z,13.70
2018-11-05T11:42:42.335Z,10.30
2018-11-05T11:45:11.615Z,10.03
2018-11-05T11:47:40.137Z,9.07
2018-11-05T11:50:10.500Z,10.70
2018-11-05T11:52:39.159Z,10.40
2018-11-05T11:55:09.584Z,9.67
2018-11-05T11:57:38.198Z,10.80
2018-11-05T12:00:09.202Z,12.17
2018-11-05T12:02:37.975Z,11.53
2018-11-05T12:05:07.304Z,10.93
2018-11-05T12:07:35.915Z,12.93
2018-11-05T12:10:06.122Z,13.97
2018-11-05T12:12:34.664Z,11.97
2018-11-05T12:15:03.711Z,13.80
2018-11-05T12:17:32.203Z,9.00
2018-11-05T12:20:00.701Z,12.93
2018-11-05T12:22:29.607Z,11.80
2018-11-05T12:24:58.194Z,17.07
2018-11-05T12:27:26.878Z,15.37
2018-11-05T12:29:55.428Z,17.23
2018-11-05T12:32:23.968Z,13.87
2018-11-05T12:34:52.574Z,11.97
2018-11-05T12:37:21.184Z,13.97
2018-11-05T12:39:49.730Z,12.73
2018-11-05T12:42:18.279Z,12.13
2018-11-05T12:44:47.450Z,11.30
2018-11-05T12:47:16.082Z,11.40
2018-11-05T12:49:44.600Z,13.30
2018-11-05T12:52:13.342Z,14.20
2018-11-05T12:54:41.898Z,13.60
2018-11-05T12:57:10.519Z,16.20
2018-11-05T12:59:39.118Z,12.50
2018-11-05T13:02:07.727Z,13.07
2018-11-05T13:04:36.256Z,12.70
2018-11-05T13:07:04.931Z,13.07
2018-11-05T13:09:33.527Z,11.60
2018-11-05T13:12:02.103Z,12.17
2018-11-05T13:14:30.738Z,11.87
2018-11-05T13:16:59.240Z,8.17
2018-11-05T13:19:27.757Z,11.03
2018-11-05T13:21:56.404Z,10.63
2018-11-05T13:24:25.016Z,12.97
2018-11-05T13:26:53.566Z,9.43
2018-11-05T13:29:22.053Z,10.83
2018-11-05T13:31:51.400Z,15.83
2018-11-05T13:34:19.944Z,9.47
2018-11-05T13:36:48.612Z,12.33
2018-11-05T13:39:17.131Z,10.17
2018-11-05T13:41:45.601Z,11.30
2018-11-05T13:44:14.094Z,11.80
2018-11-05T13:46:43.034Z,11.00
2018-11-05T13:49:12.117Z,11.23
2018-11-05T13:51:40.382Z,11.80
2018-11-05T13:54:08.951Z,10.87
2018-11-05T13:56:37.584Z,10.37
2018-11-05T13:59:06.038Z,12.83
2018-11-05T14:01:34.489Z,15.17
2018-11-05T14:04:03.146Z,7.80
2018-11-05T14:06:31.680Z,12.73
2018-11-05T14:09:00.611Z,10.27
2018-11-05T14:11:29.405Z,8.73
2018-11-05T14:13:58.097Z,12.47
2018-11-05T14:16:26.743Z,13.47
2018-11-05T14:18:55.434Z,10.17
2018-11-05T14:21:23.886Z,9.20
2018-11-05T14:23:52.553Z,14.20
2018-11-05T14:26:21.067Z,9.03
2018-11-05T14:28:50.154Z,10.70
2018-11-05T14:31:18.478Z,12.63
2018-11-05T14:33:47.175Z,10.87
2018-11-05T14:36:15.674Z,12.40
2018-11-05T14:38:44.147Z,13.50
2018-11-05T14:41:12.670Z,13.57
2018-11-05T14:43:41.314Z,13.13
2018-11-05T14:46:09.969Z,13.67
2018-11-05T14:48:38.478Z,12.53
2018-11-05T14:51:07.211Z,19.83
2018-11-05T14:53:35.996Z,14.40
2018-11-05T14:56:04.929Z,12.93
2018-11-05T14:58:33.409Z,13.93
2018-11-05T15:01:01.916Z,13.37
2018-11-05T15:03:30.698Z,17.50
2018-11-05T15:05:59.280Z,16.47
2018-11-05T15:08:27.828Z,17.47
2018-11-05T15:10:56.352Z,14.33
2018-11-05T15:13:24.802Z,14.60
2018-11-05T15:15:53.323Z,14.13
2018-11-05T15:18:21.898Z,12.77
2018-11-05T15:20:50.533Z,11.83
2018-11-05T15:23:19.156Z,14.40
2018-11-05T15:25:47.712Z,17.77
2018-11-05T15:28:16.271Z,19.03
2018-11-05T15:30:45.074Z,15.93
2018-11-05T15:33:13.549Z,14.80
2018-11-05T15:35:42.257Z,15.10
2018-11-05T15:38:10.781Z,13.97
2018-11-05T15:40:39.359Z,12.83
2018-11-05T15:43:07.845Z,14.80
2018-11-05T15:45:36.350Z,15.20
2018-11-05T15:48:05.114Z,13.93
2018-11-05T15:50:33.677Z,16.73
2018-11-05T15:53:02.689Z,13.10
2018-11-05T15:55:31.110Z,14.40
2018-11-05T15:57:59.762Z,12.10
2018-11-05T16:00:28.631Z,15.23
2018-11-05T16:02:59.737Z,13.53
2018-11-05T16:05:28.832Z,12.70
2018-11-05T16:07:57.585Z,17.30
2018-11-05T16:10:26.293Z,10.83
2018-11-05T16:12:54.967Z,13.33
2018-11-05T16:15:23.577Z,11.77
2018-11-05T16:17:52.806Z,13.53
2018-11-05T16:20:22.452Z,19.20
2018-11-05T16:22:51.869Z,15.33
2018-11-05T16:25:20.800Z,14.07
2018-11-05T16:27:49.576Z,12.93
2018-11-05T16:30:19.476Z,13.30
2018-11-05T16:32:48.868Z,15.47
2018-11-05T16:35:17.986Z,14.20
2018-11-05T16:37:46.823Z,11.67
2018-11-05T16:40:16.615Z,12.53
2018-11-05T16:42:49.844Z,18.37
2018-11-05T16:48:16.022Z,13.80
2018-11-05T16:50:44.812Z,14.53
2018-11-05T16:53:13.588Z,11.80
2018-11-05T16:55:42.373Z,14.63
2018-11-05T16:58:11.153Z,11.20
2018-11-05T17:00:40.192Z,13.30
2018-11-05T17:03:08.973Z,16.13
2018-11-05T17:05:37.896Z,18.47
2018-11-05T17:08:08.045Z,16.23
2018-11-05T17:10:36.791Z,15.73
2018-11-05T17:13:06.276Z,13.80
2018-11-05T17:15:35.164Z,14.03
2018-11-05T17:18:03.972Z,18.17
2018-11-05T17:20:32.570Z,23.47
2018-11-05T17:23:01.295Z,24.27
2018-11-05T17:25:29.990Z,14.87
2018-11-05T17:27:58.673Z,13.30
2018-11-05T17:30:27.516Z,16.83
2018-11-05T17:32:56.557Z,12.50
2018-11-05T17:35:25.207Z,13.40
2018-11-05T17:37:53.995Z,13.53
2018-11-05T17:40:23.191Z,10.83
2018-11-05T17:42:52.003Z,15.67
2018-11-05T17:45:20.903Z,17.20
2018-11-05T17:47:49.757Z,14.67
2018-11-05T17:50:19.738Z,16.50
2018-11-05T17:52:48.439Z,12.27
2018-11-05T17:55:17.520Z,17.10
2018-11-05T17:57:47.080Z,16.93
2018-11-05T18:00:17.045Z,16.40
2018-11-05T18:02:46.335Z,17.07
2018-11-05T18:05:15.487Z,16.27
2018-11-05T18:07:44.578Z,15.40
2018-11-05T18:10:13.406Z,19.73
2018-11-05T18:12:42.152Z,17.70
2018-11-05T18:15:11.942Z,22.03
2018-11-05T18:17:41.531Z,15.60
2018-11-05T18:20:11.710Z,17.00
2018-11-05T18:22:40.639Z,16.07
2018-11-05T18:25:15.299Z,16.87
2018-11-05T18:27:44.135Z,17.93
2018-11-05T18:30:13.691Z,15.47
2018-11-05T18:32:42.665Z,12.77
2018-11-05T18:35:12.405Z,12.37
2018-11-05T18:37:41.671Z,10.83
2018-11-05T18:40:11.907Z,12.43
2018-11-05T18:42:41.128Z,13.17
2018-11-05T18:45:10.119Z,8.83
2018-11-05T18:47:39.010Z,13.80
2018-11-05T18:50:10.073Z,11.90
2018-11-05T18:52:39.892Z,14.00
2018-11-05T18:55:10.011Z,10.97
2018-11-05T18:57:39.065Z,10.93
2018-11-05T19:00:16.116Z,13.80
2018-11-05T19:02:45.057Z,12.87
2018-11-05T19:05:15.301Z,11.83
2018-11-05T19:07:43.884Z,12.27
2018-11-05T19:10:12.622Z,8.20
2018-11-05T19:12:41.362Z,13.40
2018-11-05T19:15:11.419Z,11.77
2018-11-05T19:17:40.153Z,14.50
2018-11-05T19:20:10.216Z,13.73
2018-11-05T19:22:39.791Z,12.13
2018-11-05T19:25:09.728Z,16.03
2018-11-05T19:27:38.867Z,14.30
2018-11-05T19:30:10.724Z,12.77
2018-11-05T19:32:39.564Z,10.83
2018-11-05T19:35:09.649Z,29.00
2018-11-05T19:37:44.168Z,15.03
2018-11-05T19:40:13.995Z,16.37
2018-11-05T19:42:43.706Z,15.07
2018-11-05T19:45:13.850Z,18.10
2018-11-05T19:47:42.521Z,12.60
2018-11-05T19:50:13.390Z,16.17
2018-11-05T19:52:43.085Z,16.40
2018-11-05T19:55:13.663Z,14.70
2018-11-05T19:57:43.149Z,16.57
2018-11-05T20:00:17.662Z,13.00
2018-11-05T20:02:46.985Z,14.60
2018-11-05T20:05:15.927Z,15.40
2018-11-05T20:07:45.502Z,19.40
2018-11-05T20:10:14.451Z,11.47
2018-11-05T20:12:44.025Z,17.17
2018-11-05T20:15:13.485Z,14.60
2018-11-05T20:17:43.086Z,14.73
2018-11-05T20:20:13.219Z,9.87
2018-11-05T20:22:41.904Z,15.70
2018-11-05T20:25:11.056Z,11.60
2018-11-05T20:27:40.253Z,13.20
2018-11-05T20:30:11.056Z,10.73
2018-11-05T20:32:40.268Z,13.57
2018-11-05T20:35:09.189Z,11.30
2018-11-05T20:37:38.082Z,15.50
2018-11-05T20:40:08.501Z,12.90
2018-11-05T20:42:37.079Z,18.30
2018-11-05T20:45:05.757Z,17.00
2018-11-05T20:47:34.419Z,11.60
2018-11-05T20:50:03.140Z,16.63
2018-11-05T20:52:31.894Z,9.67
2018-11-05T20:55:00.668Z,11.93
2018-11-05T20:57:29.272Z,10.80
2018-11-05T20:59:57.872Z,12.67
2018-11-05T21:02:26.632Z,12.13
2018-11-05T21:04:55.405Z,9.97
2018-11-05T21:07:24.092Z,9.63
2018-11-05T21:09:56.595Z,10.13
2018-11-05T21:12:25.287Z,7.97
2018-11-05T21:14:54.148Z,7.50
2018-11-05T21:17:23.184Z,8.23
2018-11-05T21:19:51.824Z,7.60
2018-11-05T21:22:20.583Z,7.87
2018-11-05T21:24:49.360Z,9.10
2018-11-05T21:27:17.991Z,4.03
2018-11-05T21:29:46.792Z,5.20
2018-11-05T21:32:15.587Z,3.97
2018-11-05T21:34:44.325Z,6.87
2018-11-05T21:37:13.019Z,3.57
2018-11-05T21:39:41.690Z,6.13
2018-11-05T21:42:10.357Z,7.33
2018-11-05T21:44:46.439Z,4.00
2018-11-05T21:47:15.307Z,6.23
2018-11-05T21:49:44.280Z,5.33
2018-11-05T21:52:13.994Z,4.50
2018-11-05T21:54:42.717Z,4.63
2018-11-05T21:57:11.402Z,6.00
2018-11-05T21:59:40.232Z,7.33
2018-11-05T22:02:08.904Z,10.23
2018-11-05T22:04:37.573Z,5.80
2018-11-05T22:07:06.313Z,7.00
2018-11-05T22:09:35.103Z,5.57
2018-11-05T22:12:03.907Z,5.57
2018-11-05T22:14:32.554Z,5.70
2018-11-05T22:17:01.337Z,7.50
2018-11-05T22:19:30.012Z,6.77
2018-11-05T22:21:58.565Z,7.30
2018-11-05T22:24:27.141Z,9.10
2018-11-05T22:26:55.799Z,6.03
2018-11-05T22:29:24.448Z,5.93
2018-11-05T22:31:53.102Z,5.57
2018-11-05T22:34:22.065Z,4.40
2018-11-05T22:36:50.711Z,10.83
2018-11-05T22:39:19.487Z,8.93
2018-11-05T22:41:48.440Z,7.77
2018-11-05T22:44:16.972Z,10.37
2018-11-05T22:46:45.591Z,9.07
2018-11-05T22:49:14.242Z,9.97
2018-11-05T22:51:43.276Z,10.33
2018-11-05T22:54:12.549Z,11.47
2018-11-05T22:56:41.546Z,8.00
2018-11-05T22:59:10.806Z,8.37
2018-11-05T23:01:45.067Z,8.13
2018-11-05T23:04:14.167Z,8.13
2018-11-05T23:06:43.449Z,6.93
2018-11-05T23:09:12.709Z,7.67
2018-11-05T23:11:42.059Z,16.33
2018-11-05T23:14:11.087Z,9.10
2018-11-05T23:16:40.148Z,8.27
2018-11-05T23:19:09.788Z,10.40
2018-11-05T23:21:38.957Z,8.90
2018-11-05T23:24:08.006Z,7.60
2018-11-05T23:26:37.262Z,8.27
2018-11-05T23:29:06.384Z,10.57
2018-11-05T23:31:35.399Z,11.70
2018-11-05T23:34:05.067Z,13.40
2018-11-05T23:36:34.245Z,9.30
